Pagrindinis puslapis
METAR-TAF:

METAR-TAF

Oro uostai :

Izmiras, Turkija

platuma: 38-30N, ilguma: 027-01E, Aukštis: 5 m

METAR: trūkstamas

Laikas: 23:44 (20:44 UTC)

Prognozė

Ataskaita buvo paskelbta 1 valandą ir 4 minutes, ne 19:40 UTC
Prognozė galioja nuo 15 metu 21 UTC su 16 metu 06 UTC
Vėjas 2 kt nuo kintamojo kryptimis
Matomumas 10 km arba daugiau
nėra debesų žemiau 1500 m ir nėra kamuolinių lietaus debesų
Tikimybė 30% :
Laikinai
nuo 16 metu 04 UTC su 16 metu 06 UTC
Matomumas: 4000 m
rūkana

TAF: LTBL 151940Z 1521/1606 VRB02KT CAVOK PROB30 TEMPO 1604/1606 4000 BR

Orai ataskaitas ir orų prognozės (METAR, TAF).

turimą stotys yra geltonos ir raudonos taškus žemėlapyje.

Perkelti pele per norėdami pamatyti stoties vardą.

Tada spustelėkite, norėdami matyti oro stebėjimo ir prognozės.

Norėdami pakeisti žemėlapį: spustelėkite ant žalios mygtukų su juodo kryžiaus žemyn,; žalią mygtuką su brūkšneliu, jei norite nutolinti; arba žalių rodyklių gretimoms žemėlapius.


METAR-TAF: